Buoy 51940

sailwx.info

Track history (hours):
 
Tides and Currents Weather Stations Pressure Air Temp Water Temp Dewpoint Dewpoint Depression Visibility Wind Speed Wind Dir Waves Ship Positions

Drifting buoy 51940

Last reported at 2015-Apr-20 19:46 UTC. Time now 2015-Apr-21 01:27 UTC.
Position N 31°29' W 160°18'.

Water temperature 17.2 ° C

Date/timePositionNaut miles runAvg speedWind from/ knotsBaromVisibWave heightAir tempDewpointWater temp
2015-Apr-20 19:46N 31°29' W 160°18'2 0.6 17.2
2015-Apr-20 16:52N 31°27' W 160°17'0 0.0 17.3
2015-Apr-20 15:15N 31°27' W 160°17'4 0.6 17.3
2015-Apr-20 09:01N 31°26' W 160°13'2 0.4 17.4
2015-Apr-20 05:01N 31°26' W 160°11'6 0.9 18.0
2015-Apr-19 21:47N 31°27' W 160°04'1 0.2 18.5
2015-Apr-19 17:04N 31°26' W 160°03'1 0.3 17.7
2015-Apr-19 15:18N 31°26' W 160°03'0 0.0 17.8
2015-Apr-19 14:11N 31°26' W 160°03'113.0 17.9
2015-Apr-19 14:08N 31°25' W 160°03'2 0.3 17.9
2015-Apr-19 07:45N 31°23' W 160°02'2 0.5 18.0
2015-Apr-19 02:58N 31°21' W 160°02'1 0.2 18.5
2015-Apr-19 00:03N 31°20' W 160°02'2 0.2 18.1
2015-Apr-18 12:45N 31°18' W 160°04'1 0.2 17.3
2015-Apr-18 08:03N 31°18' W 160°05'1 0.3 17.3
2015-Apr-18 06:02N 31°18' W 160°05'2 0.9 17.4
2015-Apr-18 03:48N 31°16' W 160°06'0 0.0 17.5
2015-Apr-18 03:09N 31°16' W 160°06'1 0.2 17.5
2015-Apr-18 00:16N 31°15' W 160°06'1 0.3 17.4
2015-Apr-17 20:47N 31°15' W 160°05'1 1.1 17.0
2015-Apr-17 19:57N 31°15' W 160°04'1 0.1
2015-Apr-17 12:55N 31°15' W 160°04'1 0.1 16.8
2015-Apr-17 04:55N 31°14' W 160°04'0 0.5 16.8
2015-Apr-17 04:09N 31°14' W 160°04'1 1.6 16.8
2015-Apr-17 03:18N 31°14' W 160°02'5 0.5 16.8
2015-Apr-16 16:58N 31°18' W 159°57'0 0.2 16.8
2015-Apr-16 16:00N 31°18' W 159°57'0 0.0 16.8
2015-Apr-16 13:09N 31°18' W 159°57'214.3 16.8
2015-Apr-16 13:01N 31°17' W 159°55'1 0.2 16.8
2015-Apr-16 07:58N 31°16' W 159°54'3 0.8 16.9
2015-Apr-16 04:35N 31°15' W 159°51'7 1.3 17.1
2015-Apr-15 22:58N 31°16' W 159°43'0 0.0 17.4
2015-Apr-15 20:44N 31°16' W 159°43'1 0.9 17.7
2015-Apr-15 19:48N 31°17' W 159°44'1 0.3 17.7
2015-Apr-15 15:30N 31°17' W 159°42'5 0.8 17.6
2015-Apr-15 09:05N 31°14' W 159°38'1 0.4 17.3
2015-Apr-15 05:58N 31°14' W 159°36'3 0.8 17.3
2015-Apr-15 01:59N 31°13' W 159°33'3 1.2 18.0
2015-Apr-14 23:08N 31°14' W 159°29'0 0.0 17.5
2015-Apr-14 21:48N 31°14' W 159°29'1 0.3
2015-Apr-14 17:39N 31°14' W 159°28'1 0.5 17.0
2015-Apr-14 16:16N 31°14' W 159°27'0 0.0 17.0
2015-Apr-14 15:59N 31°14' W 159°27'2 0.2 17.0
2015-Apr-14 07:48N 31°13' W 159°25'357.8 16.9
2015-Apr-14 07:45N 31°12' W 159°22'0 0.0 16.9
2015-Apr-14 04:48N 31°12' W 159°22'1 1.5 17.3
2015-Apr-14 03:55N 31°12' W 159°21'1 5.1 17.3
2015-Apr-14 03:46N 31°12' W 159°20'2 1.2 17.4
2015-Apr-14 02:15N 31°12' W 159°18'0 0.0 17.9
2015-Apr-14 01:01N 31°12' W 159°18'5 0.6 17.6
2015-Apr-13 16:32N 31°14' W 159°12'1 0.3 16.3
2015-Apr-13 14:54N 31°14' W 159°11'4 0.6 16.2
2015-Apr-13 08:06N 31°13' W 159°07'5 1.2 16.2
2015-Apr-13 04:07N 31°14' W 159°01'3 1.1 16.2
2015-Apr-13 01:12N 31°15' W 158°58'5 1.0 16.3
2015-Apr-12 20:52N 31°18' W 158°54'3 0.8 16.2
2015-Apr-12 16:45N 31°21' W 158°53'0 0.4 16.1
2015-Apr-12 15:25N 31°21' W 158°52'0 2.0 16.2
2015-Apr-12 15:15N 31°21' W 158°52'0 0.0 16.2
2015-Apr-12 15:06N 31°21' W 158°52'1 0.5 16.2
2015-Apr-12 13:52N 31°22' W 158°51'1 0.4 16.2
2015-Apr-12 12:10N 31°22' W 158°51'334.7 16.2
2015-Apr-12 12:05N 31°23' W 158°48'1 0.2 16.2
2015-Apr-12 07:41N 31°23' W 158°47'0 0.3 16.2
2015-Apr-12 06:48N 31°24' W 158°46'237.2 16.2
2015-Apr-12 06:44N 31°25' W 158°44'1 0.4 16.2
2015-Apr-12 02:54N 31°26' W 158°42'0 1.8 16.3
2015-Apr-12 02:38N 31°26' W 158°42'1 1.1 16.3
2015-Apr-12 01:24N 31°27' W 158°41'2 0.9 16.3
2015-Apr-11 23:42N 31°28' W 158°40'3 1.0 16.3
2015-Apr-11 21:14N 31°30' W 158°39'1 0.8 16.1
2015-Apr-11 20:25N 31°31' W 158°39'1 1.0 16.1
2015-Apr-11 19:32N 31°31' W 158°38'110.6 16.1
2015-Apr-11 19:28N 31°32' W 158°37'0 0.0 16.1
2015-Apr-11 17:35N 31°32' W 158°37'1 1.9 16.0
2015-Apr-11 17:18N 31°32' W 158°37'0 0.0 16.1
2015-Apr-11 16:54N 31°32' W 158°37'0 0.0 16.0
2015-Apr-11 15:56N 31°32' W 158°37'1 4.3 16.0
2015-Apr-11 15:41N 31°32' W 158°36'0 0.0 16.0
2015-Apr-11 15:16N 31°32' W 158°36'0 0.0 16.0
2015-Apr-11 14:01N 31°32' W 158°36'3 0.6 16.0
2015-Apr-11 08:52N 31°33' W 158°32'120.8 16.0
2015-Apr-11 08:48N 31°33' W 158°31'0 0.0 16.0
2015-Apr-11 08:01N 31°33' W 158°31'1 0.5 16.0
2015-Apr-11 04:45N 31°34' W 158°29'1 0.7 16.1
2015-Apr-11 03:18N 31°35' W 158°28'0 0.0 16.1
2015-Apr-11 02:49N 31°35' W 158°28'1 0.6 16.1
2015-Apr-11 01:33N 31°35' W 158°28'2 1.4 16.1
2015-Apr-10 23:55N 31°37' W 158°26'3 0.6 16.1
2015-Apr-10 19:52N 31°39' W 158°24'   16.0
Track history (hours):
 
Tides and Currents Weather Stations Pressure Air Temp Water Temp Dewpoint Dewpoint Depression Visibility Wind Speed Wind Dir Waves Ship Positions

Drifting buoy 51940

Last reported at 2015-Apr-20 19:46 UTC. Time now 2015-Apr-21 01:27 UTC.
Position N 31°29' W 160°18'.

Water temperature 17.2 ° C

Date/timePositionNaut miles runAvg speedWind from/ knotsBaromVisibWave heightAir tempDewpointWater temp
2015-Apr-20 19:46N 31°29' W 160°18'2 0.6 17.2
2015-Apr-20 16:52N 31°27' W 160°17'0 0.0 17.3
2015-Apr-20 15:15N 31°27' W 160°17'4 0.6 17.3
2015-Apr-20 09:01N 31°26' W 160°13'2 0.4 17.4
2015-Apr-20 05:01N 31°26' W 160°11'6 0.9 18.0
2015-Apr-19 21:47N 31°27' W 160°04'1 0.2 18.5
2015-Apr-19 17:04N 31°26' W 160°03'1 0.3 17.7
2015-Apr-19 15:18N 31°26' W 160°03'0 0.0 17.8
2015-Apr-19 14:11N 31°26' W 160°03'113.0 17.9
2015-Apr-19 14:08N 31°25' W 160°03'2 0.3 17.9
2015-Apr-19 07:45N 31°23' W 160°02'2 0.5 18.0
2015-Apr-19 02:58N 31°21' W 160°02'1 0.2 18.5
2015-Apr-19 00:03N 31°20' W 160°02'2 0.2 18.1
2015-Apr-18 12:45N 31°18' W 160°04'1 0.2 17.3
2015-Apr-18 08:03N 31°18' W 160°05'1 0.3 17.3
2015-Apr-18 06:02N 31°18' W 160°05'2 0.9 17.4
2015-Apr-18 03:48N 31°16' W 160°06'0 0.0 17.5
2015-Apr-18 03:09N 31°16' W 160°06'1 0.2 17.5
2015-Apr-18 00:16N 31°15' W 160°06'1 0.3 17.4
2015-Apr-17 20:47N 31°15' W 160°05'1 1.1 17.0
2015-Apr-17 19:57N 31°15' W 160°04'1 0.1
2015-Apr-17 12:55N 31°15' W 160°04'1 0.1 16.8
2015-Apr-17 04:55N 31°14' W 160°04'0 0.5 16.8
2015-Apr-17 04:09N 31°14' W 160°04'1 1.6 16.8
2015-Apr-17 03:18N 31°14' W 160°02'5 0.5 16.8
2015-Apr-16 16:58N 31°18' W 159°57'0 0.2 16.8
2015-Apr-16 16:00N 31°18' W 159°57'0 0.0 16.8
2015-Apr-16 13:09N 31°18' W 159°57'214.3 16.8
2015-Apr-16 13:01N 31°17' W 159°55'1 0.2 16.8
2015-Apr-16 07:58N 31°16' W 159°54'3 0.8 16.9
2015-Apr-16 04:35N 31°15' W 159°51'7 1.3 17.1
2015-Apr-15 22:58N 31°16' W 159°43'0 0.0 17.4
2015-Apr-15 20:44N 31°16' W 159°43'1 0.9 17.7
2015-Apr-15 19:48N 31°17' W 159°44'1 0.3 17.7
2015-Apr-15 15:30N 31°17' W 159°42'5 0.8 17.6
2015-Apr-15 09:05N 31°14' W 159°38'1 0.4 17.3
2015-Apr-15 05:58N 31°14' W 159°36'3 0.8 17.3
2015-Apr-15 01:59N 31°13' W 159°33'3 1.2 18.0
2015-Apr-14 23:08N 31°14' W 159°29'0 0.0 17.5
2015-Apr-14 21:48N 31°14' W 159°29'1 0.3
2015-Apr-14 17:39N 31°14' W 159°28'1 0.5 17.0
2015-Apr-14 16:16N 31°14' W 159°27'0 0.0 17.0
2015-Apr-14 15:59N 31°14' W 159°27'2 0.2 17.0
2015-Apr-14 07:48N 31°13' W 159°25'357.8 16.9
2015-Apr-14 07:45N 31°12' W 159°22'0 0.0 16.9
2015-Apr-14 04:48N 31°12' W 159°22'1 1.5 17.3
2015-Apr-14 03:55N 31°12' W 159°21'1 5.1 17.3
2015-Apr-14 03:46N 31°12' W 159°20'2 1.2 17.4
2015-Apr-14 02:15N 31°12' W 159°18'0 0.0 17.9
2015-Apr-14 01:01N 31°12' W 159°18'5 0.6 17.6
2015-Apr-13 16:32N 31°14' W 159°12'1 0.3 16.3
2015-Apr-13 14:54N 31°14' W 159°11'4 0.6 16.2
2015-Apr-13 08:06N 31°13' W 159°07'5 1.2 16.2
2015-Apr-13 04:07N 31°14' W 159°01'3 1.1 16.2
2015-Apr-13 01:12N 31°15' W 158°58'5 1.0 16.3
2015-Apr-12 20:52N 31°18' W 158°54'3 0.8 16.2
2015-Apr-12 16:45N 31°21' W 158°53'0 0.4 16.1
2015-Apr-12 15:25N 31°21' W 158°52'0 2.0 16.2
2015-Apr-12 15:15N 31°21' W 158°52'0 0.0 16.2
2015-Apr-12 15:06N 31°21' W 158°52'1 0.5 16.2
2015-Apr-12 13:52N 31°22' W 158°51'1 0.4 16.2
2015-Apr-12 12:10N 31°22' W 158°51'334.7 16.2
2015-Apr-12 12:05N 31°23' W 158°48'1 0.2 16.2
2015-Apr-12 07:41N 31°23' W 158°47'0 0.3 16.2
2015-Apr-12 06:48N 31°24' W 158°46'237.2 16.2
2015-Apr-12 06:44N 31°25' W 158°44'1 0.4 16.2
2015-Apr-12 02:54N 31°26' W 158°42'0 1.8 16.3
2015-Apr-12 02:38N 31°26' W 158°42'1 1.1 16.3
2015-Apr-12 01:24N 31°27' W 158°41'2 0.9 16.3
2015-Apr-11 23:42N 31°28' W 158°40'3 1.0 16.3
2015-Apr-11 21:14N 31°30' W 158°39'1 0.8 16.1
2015-Apr-11 20:25N 31°31' W 158°39'1 1.0 16.1
2015-Apr-11 19:32N 31°31' W 158°38'110.6 16.1
2015-Apr-11 19:28N 31°32' W 158°37'0 0.0 16.1
2015-Apr-11 17:35N 31°32' W 158°37'1 1.9 16.0
2015-Apr-11 17:18N 31°32' W 158°37'0 0.0 16.1
2015-Apr-11 16:54N 31°32' W 158°37'0 0.0 16.0
2015-Apr-11 15:56N 31°32' W 158°37'1 4.3 16.0
2015-Apr-11 15:41N 31°32' W 158°36'0 0.0 16.0
2015-Apr-11 15:16N 31°32' W 158°36'0 0.0 16.0
2015-Apr-11 14:01N 31°32' W 158°36'3 0.6 16.0
2015-Apr-11 08:52N 31°33' W 158°32'120.8 16.0
2015-Apr-11 08:48N 31°33' W 158°31'0 0.0 16.0
2015-Apr-11 08:01N 31°33' W 158°31'1 0.5 16.0
2015-Apr-11 04:45N 31°34' W 158°29'1 0.7 16.1
2015-Apr-11 03:18N 31°35' W 158°28'0 0.0 16.1
2015-Apr-11 02:49N 31°35' W 158°28'1 0.6 16.1
2015-Apr-11 01:33N 31°35' W 158°28'2 1.4 16.1
2015-Apr-10 23:55N 31°37' W 158°26'3 0.6 16.1
2015-Apr-10 19:52N 31°39' W 158°24'   16.0

Dump ship's entire track history